sensor_id;sensor_type;location;lat;lon;timestamp;P1;durP1;ratioP1;P2;durP2;ratioP2
6023;SDS011;3040;42.654;23.296;2023-06-24T00:02:02;16.13;;;12.80;;
6023;SDS011;3040;42.654;23.296;2023-06-24T00:04:29;15.00;;;13.00;;
6023;SDS011;3040;42.654;23.296;2023-06-24T00:06:55;12.80;;;12.00;;
6023;SDS011;3040;42.654;23.296;2023-06-24T00:09:24;13.23;;;11.83;;
6023;SDS011;3040;42.654;23.296;2023-06-24T00:11:52;12.23;;;11.37;;
6023;SDS011;3040;42.654;23.296;2023-06-24T00:14:19;13.40;;;12.47;;
6023;SDS011;3040;42.654;23.296;2023-06-24T00:16:48;12.80;;;12.10;;
6023;SDS011;3040;42.654;23.296;2023-06-24T00:19:18;14.70;;;13.27;;
6023;SDS011;3040;42.654;23.296;2023-06-24T00:21:45;13.73;;;12.60;;
6023;SDS011;3040;42.654;23.296;2023-06-24T00:24:12;13.07;;;12.27;;
6023;SDS011;3040;42.654;23.296;2023-06-24T00:26:39;13.60;;;12.57;;
6023;SDS011;3040;42.654;23.296;2023-06-24T00:29:06;14.87;;;12.60;;
6023;SDS011;3040;42.654;23.296;2023-06-24T00:31:33;13.97;;;12.70;;
6023;SDS011;3040;42.654;23.296;2023-06-24T00:34:01;14.90;;;13.50;;
6023;SDS011;3040;42.654;23.296;2023-06-24T00:36:28;16.00;;;14.53;;
6023;SDS011;3040;42.654;23.296;2023-06-24T00:38:58;13.80;;;12.77;;
6023;SDS011;3040;42.654;23.296;2023-06-24T00:41:28;14.13;;;12.80;;
6023;SDS011;3040;42.654;23.296;2023-06-24T00:43:55;13.87;;;12.87;;
6023;SDS011;3040;42.654;23.296;2023-06-24T00:46:23;16.83;;;12.50;;
6023;SDS011;3040;42.654;23.296;2023-06-24T00:48:50;14.77;;;12.67;;
6023;SDS011;3040;42.654;23.296;2023-06-24T00:51:18;13.67;;;12.67;;
6023;SDS011;3040;42.654;23.296;2023-06-24T00:53:46;13.47;;;12.23;;
6023;SDS011;3040;42.654;23.296;2023-06-24T00:56:15;13.60;;;12.67;;
6023;SDS011;3040;42.654;23.296;2023-06-24T00:58:44;15.47;;;14.20;;
6023;SDS011;3040;42.654;23.296;2023-06-24T01:01:12;12.73;;;11.87;;
6023;SDS011;3040;42.654;23.296;2023-06-24T01:03:39;13.30;;;12.20;;
6023;SDS011;3040;42.654;23.296;2023-06-24T01:06:07;14.40;;;13.27;;
6023;SDS011;3040;42.654;23.296;2023-06-24T01:08:36;14.63;;;13.73;;
6023;SDS011;3040;42.654;23.296;2023-06-24T01:11:02;14.03;;;12.93;;
6023;SDS011;3040;42.654;23.296;2023-06-24T01:13:29;13.83;;;12.73;;
6023;SDS011;3040;42.654;23.296;2023-06-24T01:15:56;12.60;;;11.57;;
6023;SDS011;3040;42.654;23.296;2023-06-24T01:18:28;14.30;;;13.10;;
6023;SDS011;3040;42.654;23.296;2023-06-24T01:21:03;12.73;;;11.80;;
6023;SDS011;3040;42.654;23.296;2023-06-24T01:23:44;13.57;;;12.40;;
6023;SDS011;3040;42.654;23.296;2023-06-24T01:26:34;13.53;;;12.23;;
6023;SDS011;3040;42.654;23.296;2023-06-24T01:32:30;12.87;;;11.80;;
6023;SDS011;3040;42.654;23.296;2023-06-24T01:35:02;13.20;;;12.03;;
6023;SDS011;3040;42.654;23.296;2023-06-24T01:37:35;14.77;;;13.43;;
6023;SDS011;3040;42.654;23.296;2023-06-24T01:40:07;14.33;;;12.93;;
6023;SDS011;3040;42.654;23.296;2023-06-24T01:42:39;12.67;;;11.70;;
6023;SDS011;3040;42.654;23.296;2023-06-24T01:45:09;14.00;;;12.77;;
6023;SDS011;3040;42.654;23.296;2023-06-24T01:47:40;14.17;;;11.87;;
6023;SDS011;3040;42.654;23.296;2023-06-24T01:50:10;13.10;;;12.10;;
6023;SDS011;3040;42.654;23.296;2023-06-24T01:52:39;15.67;;;12.27;;
6023;SDS011;3040;42.654;23.296;2023-06-24T01:55:09;13.03;;;12.30;;
6023;SDS011;3040;42.654;23.296;2023-06-24T01:57:38;12.43;;;11.73;;
6023;SDS011;3040;42.654;23.296;2023-06-24T02:00:07;13.07;;;11.90;;
6023;SDS011;3040;42.654;23.296;2023-06-24T02:02:35;17.00;;;12.73;;
6023;SDS011;3040;42.654;23.296;2023-06-24T02:05:05;14.60;;;12.60;;
6023;SDS011;3040;42.654;23.296;2023-06-24T02:07:34;12.37;;;11.47;;
6023;SDS011;3040;42.654;23.296;2023-06-24T02:10:02;11.80;;;11.00;;
6023;SDS011;3040;42.654;23.296;2023-06-24T02:12:30;11.63;;;11.00;;
6023;SDS011;3040;42.654;23.296;2023-06-24T02:14:58;13.43;;;12.50;;
6023;SDS011;3040;42.654;23.296;2023-06-24T02:17:26;14.77;;;13.33;;
6023;SDS011;3040;42.654;23.296;2023-06-24T02:19:54;13.60;;;12.70;;
6023;SDS011;3040;42.654;23.296;2023-06-24T02:22:23;14.77;;;13.50;;
6023;SDS011;3040;42.654;23.296;2023-06-24T02:24:51;14.43;;;13.10;;
6023;SDS011;3040;42.654;23.296;2023-06-24T02:27:18;17.53;;;12.37;;
6023;SDS011;3040;42.654;23.296;2023-06-24T02:29:46;13.97;;;13.17;;
6023;SDS011;3040;42.654;23.296;2023-06-24T02:32:14;13.77;;;12.47;;
6023;SDS011;3040;42.654;23.296;2023-06-24T02:34:41;13.37;;;12.47;;
6023;SDS011;3040;42.654;23.296;2023-06-24T02:37:08;13.80;;;12.57;;
6023;SDS011;3040;42.654;23.296;2023-06-24T02:39:36;14.37;;;12.70;;
6023;SDS011;3040;42.654;23.296;2023-06-24T02:42:09;14.17;;;13.13;;
6023;SDS011;3040;42.654;23.296;2023-06-24T02:44:36;13.37;;;12.67;;
6023;SDS011;3040;42.654;23.296;2023-06-24T02:47:03;14.53;;;12.10;;
6023;SDS011;3040;42.654;23.296;2023-06-24T02:49:31;12.93;;;12.17;;
6023;SDS011;3040;42.654;23.296;2023-06-24T02:51:58;12.70;;;11.90;;
6023;SDS011;3040;42.654;23.296;2023-06-24T02:54:25;13.30;;;12.27;;
6023;SDS011;3040;42.654;23.296;2023-06-24T02:56:54;12.63;;;11.40;;
6023;SDS011;3040;42.654;23.296;2023-06-24T02:59:22;12.63;;;11.67;;
6023;SDS011;3040;42.654;23.296;2023-06-24T03:01:49;12.37;;;11.63;;
6023;SDS011;3040;42.654;23.296;2023-06-24T03:04:17;15.30;;;13.10;;
6023;SDS011;3040;42.654;23.296;2023-06-24T03:06:44;12.73;;;11.83;;
6023;SDS011;3040;42.654;23.296;2023-06-24T03:09:11;13.13;;;12.00;;
6023;SDS011;3040;42.654;23.296;2023-06-24T03:11:40;16.90;;;13.77;;
6023;SDS011;3040;42.654;23.296;2023-06-24T03:14:09;14.40;;;13.27;;
6023;SDS011;3040;42.654;23.296;2023-06-24T03:16:36;14.40;;;13.30;;
6023;SDS011;3040;42.654;23.296;2023-06-24T03:19:03;13.80;;;12.50;;
6023;SDS011;3040;42.654;23.296;2023-06-24T03:21:30;18.00;;;14.03;;
6023;SDS011;3040;42.654;23.296;2023-06-24T03:23:57;13.60;;;12.73;;
6023;SDS011;3040;42.654;23.296;2023-06-24T03:26:25;13.73;;;12.50;;
6023;SDS011;3040;42.654;23.296;2023-06-24T03:28:57;13.40;;;12.10;;
6023;SDS011;3040;42.654;23.296;2023-06-24T03:31:25;13.10;;;12.07;;
6023;SDS011;3040;42.654;23.296;2023-06-24T03:33:52;13.07;;;12.13;;
6023;SDS011;3040;42.654;23.296;2023-06-24T03:36:18;14.63;;;13.43;;
6023;SDS011;3040;42.654;23.296;2023-06-24T03:38:45;14.10;;;13.07;;
6023;SDS011;3040;42.654;23.296;2023-06-24T03:41:12;13.80;;;12.80;;
6023;SDS011;3040;42.654;23.296;2023-06-24T03:43:39;13.90;;;13.10;;
6023;SDS011;3040;42.654;23.296;2023-06-24T03:46:06;13.60;;;12.43;;
6023;SDS011;3040;42.654;23.296;2023-06-24T03:48:35;13.70;;;12.50;;
6023;SDS011;3040;42.654;23.296;2023-06-24T03:51:02;14.83;;;13.53;;
6023;SDS011;3040;42.654;23.296;2023-06-24T03:53:28;15.90;;;14.63;;
6023;SDS011;3040;42.654;23.296;2023-06-24T03:55:55;15.63;;;13.80;;
6023;SDS011;3040;42.654;23.296;2023-06-24T03:58:22;14.13;;;12.90;;
6023;SDS011;3040;42.654;23.296;2023-06-24T04:00:49;16.63;;;14.83;;
6023;SDS011;3040;42.654;23.296;2023-06-24T04:03:15;14.97;;;13.67;;
6023;SDS011;3040;42.654;23.296;2023-06-24T04:05:44;15.80;;;14.63;;
6023;SDS011;3040;42.654;23.296;2023-06-24T04:08:11;14.40;;;13.60;;
6023;SDS011;3040;42.654;23.296;2023-06-24T04:10:38;15.57;;;14.37;;
6023;SDS011;3040;42.654;23.296;2023-06-24T04:13:04;14.93;;;13.93;;
6023;SDS011;3040;42.654;23.296;2023-06-24T04:15:31;15.57;;;14.23;;
6023;SDS011;3040;42.654;23.296;2023-06-24T04:17:58;16.10;;;14.80;;
6023;SDS011;3040;42.654;23.296;2023-06-24T04:20:25;17.23;;;15.63;;
6023;SDS011;3040;42.654;23.296;2023-06-24T04:22:53;15.87;;;14.77;;
6023;SDS011;3040;42.654;23.296;2023-06-24T04:25:19;16.13;;;15.13;;
6023;SDS011;3040;42.654;23.296;2023-06-24T04:27:46;15.20;;;14.10;;
6023;SDS011;3040;42.654;23.296;2023-06-24T04:30:13;15.50;;;14.33;;
6023;SDS011;3040;42.654;23.296;2023-06-24T04:32:40;15.70;;;14.53;;
6023;SDS011;3040;42.654;23.296;2023-06-24T04:35:07;15.07;;;13.87;;
6023;SDS011;3040;42.654;23.296;2023-06-24T04:37:36;15.27;;;14.07;;
6023;SDS011;3040;42.654;23.296;2023-06-24T04:40:05;14.90;;;13.90;;
6023;SDS011;3040;42.654;23.296;2023-06-24T04:42:33;15.93;;;14.23;;
6023;SDS011;3040;42.654;23.296;2023-06-24T04:45:00;14.87;;;13.90;;
6023;SDS011;3040;42.654;23.296;2023-06-24T04:47:30;16.27;;;14.97;;
6023;SDS011;3040;42.654;23.296;2023-06-24T04:49:57;16.57;;;15.30;;
6023;SDS011;3040;42.654;23.296;2023-06-24T04:52:23;15.37;;;14.10;;
6023;SDS011;3040;42.654;23.296;2023-06-24T04:54:50;16.03;;;14.73;;
6023;SDS011;3040;42.654;23.296;2023-06-24T04:57:27;15.13;;;14.07;;
6023;SDS011;3040;42.654;23.296;2023-06-24T04:59:55;15.30;;;14.07;;
6023;SDS011;3040;42.654;23.296;2023-06-24T05:02:23;15.63;;;14.50;;
6023;SDS011;3040;42.654;23.296;2023-06-24T05:04:51;16.17;;;14.87;;
6023;SDS011;3040;42.654;23.296;2023-06-24T05:07:18;15.90;;;14.37;;
6023;SDS011;3040;42.654;23.296;2023-06-24T05:09:45;16.00;;;14.47;;
6023;SDS011;3040;42.654;23.296;2023-06-24T05:12:12;16.63;;;14.80;;
6023;SDS011;3040;42.654;23.296;2023-06-24T05:14:41;16.03;;;14.63;;
6023;SDS011;3040;42.654;23.296;2023-06-24T05:17:08;15.07;;;14.13;;
6023;SDS011;3040;42.654;23.296;2023-06-24T05:19:34;16.50;;;15.00;;
6023;SDS011;3040;42.654;23.296;2023-06-24T05:22:01;17.20;;;15.57;;
6023;SDS011;3040;42.654;23.296;2023-06-24T05:24:28;17.27;;;15.73;;
6023;SDS011;3040;42.654;23.296;2023-06-24T05:26:55;18.10;;;14.57;;
6023;SDS011;3040;42.654;23.296;2023-06-24T05:29:22;15.93;;;14.70;;
6023;SDS011;3040;42.654;23.296;2023-06-24T05:31:50;15.53;;;14.43;;
6023;SDS011;3040;42.654;23.296;2023-06-24T05:34:17;15.93;;;14.83;;
6023;SDS011;3040;42.654;23.296;2023-06-24T05:36:43;15.50;;;14.23;;
6023;SDS011;3040;42.654;23.296;2023-06-24T05:39:10;15.50;;;14.60;;
6023;SDS011;3040;42.654;23.296;2023-06-24T05:41:38;16.50;;;14.13;;
6023;SDS011;3040;42.654;23.296;2023-06-24T05:44:05;16.30;;;14.77;;
6023;SDS011;3040;42.654;23.296;2023-06-24T05:46:34;15.60;;;14.33;;
6023;SDS011;3040;42.654;23.296;2023-06-24T05:49:02;15.87;;;14.57;;
6023;SDS011;3040;42.654;23.296;2023-06-24T05:51:29;15.33;;;14.27;;
6023;SDS011;3040;42.654;23.296;2023-06-24T05:53:55;14.93;;;13.87;;
6023;SDS011;3040;42.654;23.296;2023-06-24T05:56:22;20.43;;;14.60;;
6023;SDS011;3040;42.654;23.296;2023-06-24T05:58:49;15.57;;;14.13;;
6023;SDS011;3040;42.654;23.296;2023-06-24T06:01:16;15.00;;;13.80;;
6023;SDS011;3040;42.654;23.296;2023-06-24T06:03:42;14.10;;;12.80;;
6023;SDS011;3040;42.654;23.296;2023-06-24T06:06:11;11.90;;;10.90;;
6023;SDS011;3040;42.654;23.296;2023-06-24T06:08:37;12.87;;;11.63;;
6023;SDS011;3040;42.654;23.296;2023-06-24T06:11:04;12.83;;;11.70;;
6023;SDS011;3040;42.654;23.296;2023-06-24T06:13:31;12.40;;;11.73;;
6023;SDS011;3040;42.654;23.296;2023-06-24T06:15:58;11.90;;;10.80;;
6023;SDS011;3040;42.654;23.296;2023-06-24T06:18:25;11.40;;;10.70;;
6023;SDS011;3040;42.654;23.296;2023-06-24T06:20:51;11.03;;;10.53;;
6023;SDS011;3040;42.654;23.296;2023-06-24T06:23:19;12.80;;;11.90;;
6023;SDS011;3040;42.654;23.296;2023-06-24T06:25:46;11.80;;;11.30;;
6023;SDS011;3040;42.654;23.296;2023-06-24T06:28:13;12.80;;;11.77;;
6023;SDS011;3040;42.654;23.296;2023-06-24T06:30:40;12.10;;;11.20;;
6023;SDS011;3040;42.654;23.296;2023-06-24T06:33:06;12.37;;;11.50;;
6023;SDS011;3040;42.654;23.296;2023-06-24T06:35:33;12.70;;;11.90;;
6023;SDS011;3040;42.654;23.296;2023-06-24T06:38:00;14.37;;;13.27;;
6023;SDS011;3040;42.654;23.296;2023-06-24T06:40:28;12.83;;;11.77;;
6023;SDS011;3040;42.654;23.296;2023-06-24T06:42:55;14.53;;;13.27;;
6023;SDS011;3040;42.654;23.296;2023-06-24T06:45:22;12.97;;;11.93;;
6023;SDS011;3040;42.654;23.296;2023-06-24T06:47:49;13.00;;;12.13;;
6023;SDS011;3040;42.654;23.296;2023-06-24T06:50:16;12.37;;;11.73;;
6023;SDS011;3040;42.654;23.296;2023-06-24T06:52:43;13.60;;;12.20;;
6023;SDS011;3040;42.654;23.296;2023-06-24T06:55:09;13.03;;;12.20;;
6023;SDS011;3040;42.654;23.296;2023-06-24T06:57:37;13.23;;;11.97;;
6023;SDS011;3040;42.654;23.296;2023-06-24T07:00:05;12.77;;;11.73;;
6023;SDS011;3040;42.654;23.296;2023-06-24T07:02:32;12.77;;;11.97;;
6023;SDS011;3040;42.654;23.296;2023-06-24T07:04:59;13.00;;;12.20;;
6023;SDS011;3040;42.654;23.296;2023-06-24T07:07:26;13.37;;;12.20;;
6023;SDS011;3040;42.654;23.296;2023-06-24T07:09:53;13.87;;;12.87;;
6023;SDS011;3040;42.654;23.296;2023-06-24T07:12:20;13.90;;;12.80;;
6023;SDS011;3040;42.654;23.296;2023-06-24T07:14:50;13.83;;;12.67;;
6023;SDS011;3040;42.654;23.296;2023-06-24T07:17:16;14.63;;;13.43;;
6023;SDS011;3040;42.654;23.296;2023-06-24T07:19:43;26.80;;;14.73;;
6023;SDS011;3040;42.654;23.296;2023-06-24T07:22:10;17.67;;;12.90;;
6023;SDS011;3040;42.654;23.296;2023-06-24T07:24:37;13.73;;;12.40;;
6023;SDS011;3040;42.654;23.296;2023-06-24T07:27:04;13.43;;;12.43;;
6023;SDS011;3040;42.654;23.296;2023-06-24T07:29:32;14.57;;;13.07;;
6023;SDS011;3040;42.654;23.296;2023-06-24T07:32:00;13.10;;;12.17;;
6023;SDS011;3040;42.654;23.296;2023-06-24T07:34:28;14.47;;;13.20;;
6023;SDS011;3040;42.654;23.296;2023-06-24T07:36:55;13.80;;;12.67;;
6023;SDS011;3040;42.654;23.296;2023-06-24T07:39:22;13.93;;;13.10;;
6023;SDS011;3040;42.654;23.296;2023-06-24T07:41:49;14.77;;;13.73;;
6023;SDS011;3040;42.654;23.296;2023-06-24T07:44:15;15.40;;;14.27;;
6023;SDS011;3040;42.654;23.296;2023-06-24T07:46:44;15.30;;;13.83;;
6023;SDS011;3040;42.654;23.296;2023-06-24T07:49:12;15.93;;;14.67;;
6023;SDS011;3040;42.654;23.296;2023-06-24T07:51:39;14.40;;;13.07;;
6023;SDS011;3040;42.654;23.296;2023-06-24T07:54:05;14.50;;;13.40;;
6023;SDS011;3040;42.654;23.296;2023-06-24T07:56:32;15.50;;;13.40;;
6023;SDS011;3040;42.654;23.296;2023-06-24T07:59:00;15.10;;;13.60;;
6023;SDS011;3040;42.654;23.296;2023-06-24T08:01:27;13.93;;;13.10;;
6023;SDS011;3040;42.654;23.296;2023-06-24T08:03:54;14.57;;;13.23;;
6023;SDS011;3040;42.654;23.296;2023-06-24T08:06:22;20.67;;;13.03;;
6023;SDS011;3040;42.654;23.296;2023-06-24T08:08:49;13.40;;;12.27;;
6023;SDS011;3040;42.654;23.296;2023-06-24T08:11:16;14.07;;;12.90;;
6023;SDS011;3040;42.654;23.296;2023-06-24T08:13:42;17.37;;;13.97;;
6023;SDS011;3040;42.654;23.296;2023-06-24T08:16:09;12.67;;;11.77;;
6023;SDS011;3040;42.654;23.296;2023-06-24T08:18:36;13.27;;;12.57;;
6023;SDS011;3040;42.654;23.296;2023-06-24T08:21:04;13.90;;;12.97;;
6023;SDS011;3040;42.654;23.296;2023-06-24T08:23:32;14.63;;;13.30;;
6023;SDS011;3040;42.654;23.296;2023-06-24T08:25:59;13.50;;;12.67;;
6023;SDS011;3040;42.654;23.296;2023-06-24T08:28:26;15.13;;;13.90;;
6023;SDS011;3040;42.654;23.296;2023-06-24T08:30:52;14.83;;;13.77;;
6023;SDS011;3040;42.654;23.296;2023-06-24T08:33:19;14.87;;;13.53;;
6023;SDS011;3040;42.654;23.296;2023-06-24T08:35:46;12.00;;;11.17;;
6023;SDS011;3040;42.654;23.296;2023-06-24T08:38:13;13.20;;;12.40;;
6023;SDS011;3040;42.654;23.296;2023-06-24T08:40:41;14.20;;;13.30;;
6023;SDS011;3040;42.654;23.296;2023-06-24T08:43:08;13.87;;;12.67;;
6023;SDS011;3040;42.654;23.296;2023-06-24T08:45:35;13.47;;;12.87;;
6023;SDS011;3040;42.654;23.296;2023-06-24T08:48:02;12.40;;;11.57;;
6023;SDS011;3040;42.654;23.296;2023-06-24T08:50:33;13.80;;;12.80;;
6023;SDS011;3040;42.654;23.296;2023-06-24T08:53:03;13.53;;;12.37;;
6023;SDS011;3040;42.654;23.296;2023-06-24T08:55:34;14.00;;;13.13;;
6023;SDS011;3040;42.654;23.296;2023-06-24T08:58:05;14.13;;;12.70;;
6023;SDS011;3040;42.654;23.296;2023-06-24T09:00:35;13.80;;;12.70;;
6023;SDS011;3040;42.654;23.296;2023-06-24T09:03:02;14.30;;;13.17;;
6023;SDS011;3040;42.654;23.296;2023-06-24T09:05:29;12.53;;;11.40;;
6023;SDS011;3040;42.654;23.296;2023-06-24T09:07:57;17.67;;;12.97;;
6023;SDS011;3040;42.654;23.296;2023-06-24T09:10:31;14.43;;;13.13;;
6023;SDS011;3040;42.654;23.296;2023-06-24T09:12:58;14.30;;;13.20;;
6023;SDS011;3040;42.654;23.296;2023-06-24T09:15:30;13.47;;;12.60;;
6023;SDS011;3040;42.654;23.296;2023-06-24T09:17:58;13.73;;;12.87;;
6023;SDS011;3040;42.654;23.296;2023-06-24T09:20:25;14.10;;;13.20;;
6023;SDS011;3040;42.654;23.296;2023-06-24T09:22:57;14.30;;;13.30;;
6023;SDS011;3040;42.654;23.296;2023-06-24T09:25:24;14.77;;;13.47;;
6023;SDS011;3040;42.654;23.296;2023-06-24T09:27:53;12.70;;;12.10;;
6023;SDS011;3040;42.654;23.296;2023-06-24T09:30:22;13.90;;;13.00;;
6023;SDS011;3040;42.654;23.296;2023-06-24T09:32:51;15.77;;;13.27;;
6023;SDS011;3040;42.654;23.296;2023-06-24T09:35:19;14.23;;;13.40;;
6023;SDS011;3040;42.654;23.296;2023-06-24T09:37:51;12.57;;;11.43;;
6023;SDS011;3040;42.654;23.296;2023-06-24T09:40:18;12.60;;;11.90;;
6023;SDS011;3040;42.654;23.296;2023-06-24T09:42:49;12.30;;;11.27;;
6023;SDS011;3040;42.654;23.296;2023-06-24T09:45:19;11.40;;;10.80;;
6023;SDS011;3040;42.654;23.296;2023-06-24T09:47:51;11.73;;;10.87;;
6023;SDS011;3040;42.654;23.296;2023-06-24T09:50:18;11.07;;;10.43;;
6023;SDS011;3040;42.654;23.296;2023-06-24T09:52:45;11.40;;;10.57;;
6023;SDS011;3040;42.654;23.296;2023-06-24T09:55:12;15.00;;;10.93;;
6023;SDS011;3040;42.654;23.296;2023-06-24T09:57:44;12.13;;;11.33;;
6023;SDS011;3040;42.654;23.296;2023-06-24T10:00:13;11.40;;;10.50;;
6023;SDS011;3040;42.654;23.296;2023-06-24T10:02:41;11.47;;;10.37;;
6023;SDS011;3040;42.654;23.296;2023-06-24T10:05:11;15.38;;;11.35;;
6023;SDS011;3040;42.654;23.296;2023-06-24T10:07:38;10.67;;;9.77;;
6023;SDS011;3040;42.654;23.296;2023-06-24T10:10:06;10.93;;;10.33;;
6023;SDS011;3040;42.654;23.296;2023-06-24T10:12:34;11.20;;;10.37;;
6023;SDS011;3040;42.654;23.296;2023-06-24T10:15:02;9.90;;;9.20;;
6023;SDS011;3040;42.654;23.296;2023-06-24T10:17:30;11.33;;;10.73;;
6023;SDS011;3040;42.654;23.296;2023-06-24T10:19:57;11.02;;;10.10;;
6023;SDS011;3040;42.654;23.296;2023-06-24T10:22:25;10.43;;;9.82;;
6023;SDS011;3040;42.654;23.296;2023-06-24T10:24:53;10.52;;;9.52;;
6023;SDS011;3040;42.654;23.296;2023-06-24T10:27:22;10.50;;;9.85;;
6023;SDS011;3040;42.654;23.296;2023-06-24T10:29:49;10.32;;;9.32;;
6023;SDS011;3040;42.654;23.296;2023-06-24T10:32:17;11.23;;;10.40;;
6023;SDS011;3040;42.654;23.296;2023-06-24T10:34:45;9.30;;;8.80;;
6023;SDS011;3040;42.654;23.296;2023-06-24T10:37:14;9.73;;;9.13;;
6023;SDS011;3040;42.654;23.296;2023-06-24T10:39:46;10.07;;;9.50;;
6023;SDS011;3040;42.654;23.296;2023-06-24T10:45:13;10.70;;;10.20;;
6023;SDS011;3040;42.654;23.296;2023-06-24T10:47:49;11.05;;;9.85;;
6023;SDS011;3040;42.654;23.296;2023-06-24T10:50:18;9.88;;;9.23;;
6023;SDS011;3040;42.654;23.296;2023-06-24T10:52:46;10.70;;;9.82;;
6023;SDS011;3040;42.654;23.296;2023-06-24T10:55:16;8.30;;;7.90;;
6023;SDS011;3040;42.654;23.296;2023-06-24T10:57:43;8.48;;;7.97;;
6023;SDS011;3040;42.654;23.296;2023-06-24T11:00:11;9.32;;;8.70;;
6023;SDS011;3040;42.654;23.296;2023-06-24T11:02:39;9.48;;;9.07;;
6023;SDS011;3040;42.654;23.296;2023-06-24T11:05:06;11.02;;;10.40;;
6023;SDS011;3040;42.654;23.296;2023-06-24T11:07:33;9.68;;;8.82;;
6023;SDS011;3040;42.654;23.296;2023-06-24T11:10:02;8.50;;;8.10;;
6023;SDS011;3040;42.654;23.296;2023-06-24T11:12:32;8.13;;;7.65;;
6023;SDS011;3040;42.654;23.296;2023-06-24T11:15:00;8.57;;;8.18;;
6023;SDS011;3040;42.654;23.296;2023-06-24T11:17:29;8.13;;;7.53;;
6023;SDS011;3040;42.654;23.296;2023-06-24T11:19:56;10.02;;;8.45;;
6023;SDS011;3040;42.654;23.296;2023-06-24T11:22:25;8.63;;;7.93;;
6023;SDS011;3040;42.654;23.296;2023-06-24T11:24:53;8.13;;;7.68;;
6023;SDS011;3040;42.654;23.296;2023-06-24T11:27:24;8.23;;;7.70;;
6023;SDS011;3040;42.654;23.296;2023-06-24T11:29:54;7.60;;;7.30;;
6023;SDS011;3040;42.654;23.296;2023-06-24T11:32:23;8.32;;;7.82;;
6023;SDS011;3040;42.654;23.296;2023-06-24T11:34:50;8.13;;;7.50;;
6023;SDS011;3040;42.654;23.296;2023-06-24T11:37:17;7.85;;;7.45;;
6023;SDS011;3040;42.654;23.296;2023-06-24T11:39:45;8.18;;;7.70;;
6023;SDS011;3040;42.654;23.296;2023-06-24T11:42:28;7.50;;;7.20;;
6023;SDS011;3040;42.654;23.296;2023-06-24T11:45:00;7.78;;;7.38;;
6023;SDS011;3040;42.654;23.296;2023-06-24T11:47:28;8.47;;;7.60;;
6023;SDS011;3040;42.654;23.296;2023-06-24T11:49:58;9.23;;;8.50;;
6023;SDS011;3040;42.654;23.296;2023-06-24T11:52:31;8.57;;;7.90;;
6023;SDS011;3040;42.654;23.296;2023-06-24T11:54:59;9.03;;;8.43;;
6023;SDS011;3040;42.654;23.296;2023-06-24T12:00:20;8.97;;;8.50;;
6023;SDS011;3040;42.654;23.296;2023-06-24T12:02:49;8.00;;;7.67;;
6023;SDS011;3040;42.654;23.296;2023-06-24T12:05:20;9.03;;;8.27;;
6023;SDS011;3040;42.654;23.296;2023-06-24T12:07:51;8.50;;;8.00;;
6023;SDS011;3040;42.654;23.296;2023-06-24T12:10:21;8.43;;;8.10;;
6023;SDS011;3040;42.654;23.296;2023-06-24T12:12:47;8.33;;;8.00;;
6023;SDS011;3040;42.654;23.296;2023-06-24T12:15:14;8.17;;;7.40;;
6023;SDS011;3040;42.654;23.296;2023-06-24T12:17:42;8.47;;;7.97;;
6023;SDS011;3040;42.654;23.296;2023-06-24T12:20:09;8.47;;;7.90;;
6023;SDS011;3040;42.654;23.296;2023-06-24T12:22:38;9.47;;;8.53;;
6023;SDS011;3040;42.654;23.296;2023-06-24T12:25:06;8.80;;;8.13;;
6023;SDS011;3040;42.654;23.296;2023-06-24T12:27:33;8.53;;;7.73;;
6023;SDS011;3040;42.654;23.296;2023-06-24T12:30:00;8.27;;;7.57;;
6023;SDS011;3040;42.654;23.296;2023-06-24T12:32:27;8.03;;;7.50;;
6023;SDS011;3040;42.654;23.296;2023-06-24T12:34:55;9.03;;;8.33;;
6023;SDS011;3040;42.654;23.296;2023-06-24T12:37:22;8.10;;;7.60;;
6023;SDS011;3040;42.654;23.296;2023-06-24T12:39:49;8.80;;;8.10;;
6023;SDS011;3040;42.654;23.296;2023-06-24T12:42:17;8.47;;;8.07;;
6023;SDS011;3040;42.654;23.296;2023-06-24T12:44:44;8.53;;;8.00;;
6023;SDS011;3040;42.654;23.296;2023-06-24T12:47:11;8.33;;;7.70;;
6023;SDS011;3040;42.654;23.296;2023-06-24T12:49:37;9.80;;;9.17;;
6023;SDS011;3040;42.654;23.296;2023-06-24T12:52:06;8.90;;;8.40;;
6023;SDS011;3040;42.654;23.296;2023-06-24T12:54:33;9.50;;;8.70;;
6023;SDS011;3040;42.654;23.296;2023-06-24T12:57:00;9.37;;;8.53;;
6023;SDS011;3040;42.654;23.296;2023-06-24T12:59:27;9.37;;;8.47;;
6023;SDS011;3040;42.654;23.296;2023-06-24T13:01:54;8.30;;;7.73;;
6023;SDS011;3040;42.654;23.296;2023-06-24T13:04:20;8.00;;;7.70;;
6023;SDS011;3040;42.654;23.296;2023-06-24T13:06:49;9.20;;;8.40;;
6023;SDS011;3040;42.654;23.296;2023-06-24T13:09:17;8.27;;;7.33;;
6023;SDS011;3040;42.654;23.296;2023-06-24T13:11:44;9.13;;;8.40;;
6023;SDS011;3040;42.654;23.296;2023-06-24T13:14:11;9.53;;;8.83;;
6023;SDS011;3040;42.654;23.296;2023-06-24T13:16:38;9.50;;;8.10;;
6023;SDS011;3040;42.654;23.296;2023-06-24T13:19:06;9.47;;;8.77;;
6023;SDS011;3040;42.654;23.296;2023-06-24T13:21:32;10.43;;;9.43;;
6023;SDS011;3040;42.654;23.296;2023-06-24T13:23:59;9.27;;;8.43;;
6023;SDS011;3040;42.654;23.296;2023-06-24T13:26:27;20.20;;;10.60;;
6023;SDS011;3040;42.654;23.296;2023-06-24T13:28:54;15.27;;;10.60;;
6023;SDS011;3040;42.654;23.296;2023-06-24T13:31:21;11.00;;;10.13;;
6023;SDS011;3040;42.654;23.296;2023-06-24T13:33:48;11.10;;;10.20;;
6023;SDS011;3040;42.654;23.296;2023-06-24T13:36:26;18.67;;;9.53;;
6023;SDS011;3040;42.654;23.296;2023-06-24T13:38:56;18.10;;;10.00;;
6023;SDS011;3040;42.654;23.296;2023-06-24T13:41:23;16.33;;;8.10;;
6023;SDS011;3040;42.654;23.296;2023-06-24T13:43:52;11.60;;;7.67;;
6023;SDS011;3040;42.654;23.296;2023-06-24T13:46:19;10.80;;;6.73;;
6023;SDS011;3040;42.654;23.296;2023-06-24T13:48:46;19.67;;;7.17;;
6023;SDS011;3040;42.654;23.296;2023-06-24T13:51:12;18.30;;;6.73;;
6023;SDS011;3040;42.654;23.296;2023-06-24T13:53:39;9.73;;;7.10;;
6023;SDS011;3040;42.654;23.296;2023-06-24T13:56:06;16.07;;;7.23;;
6023;SDS011;3040;42.654;23.296;2023-06-24T13:58:33;13.73;;;7.47;;
6023;SDS011;3040;42.654;23.296;2023-06-24T14:01:01;15.33;;;7.27;;
6023;SDS011;3040;42.654;23.296;2023-06-24T14:03:28;8.23;;;7.50;;
6023;SDS011;3040;42.654;23.296;2023-06-24T14:05:56;12.40;;;7.57;;
6023;SDS011;3040;42.654;23.296;2023-06-24T14:08:23;9.63;;;8.03;;
6023;SDS011;3040;42.654;23.296;2023-06-24T14:10:50;14.07;;;7.00;;
6023;SDS011;3040;42.654;23.296;2023-06-24T14:13:17;12.47;;;7.50;;
6023;SDS011;3040;42.654;23.296;2023-06-24T14:15:46;9.53;;;7.20;;
6023;SDS011;3040;42.654;23.296;2023-06-24T14:18:16;18.00;;;8.37;;
6023;SDS011;3040;42.654;23.296;2023-06-24T14:20:42;12.83;;;7.40;;
6023;SDS011;3040;42.654;23.296;2023-06-24T14:23:09;16.53;;;6.70;;
6023;SDS011;3040;42.654;23.296;2023-06-24T14:25:36;7.53;;;6.30;;
6023;SDS011;3040;42.654;23.296;2023-06-24T14:28:03;11.00;;;6.67;;
6023;SDS011;3040;42.654;23.296;2023-06-24T14:30:30;9.13;;;6.87;;
6023;SDS011;3040;42.654;23.296;2023-06-24T14:32:57;13.33;;;7.10;;
6023;SDS011;3040;42.654;23.296;2023-06-24T14:35:25;12.43;;;7.27;;
6023;SDS011;3040;42.654;23.296;2023-06-24T14:37:52;18.63;;;7.53;;
6023;SDS011;3040;42.654;23.296;2023-06-24T14:40:19;7.27;;;6.57;;
6023;SDS011;3040;42.654;23.296;2023-06-24T14:42:46;17.80;;;7.10;;
6023;SDS011;3040;42.654;23.296;2023-06-24T14:45:13;10.37;;;7.13;;
6023;SDS011;3040;42.654;23.296;2023-06-24T14:47:39;18.97;;;7.33;;
6023;SDS011;3040;42.654;23.296;2023-06-24T14:50:07;14.33;;;7.40;;
6023;SDS011;3040;42.654;23.296;2023-06-24T14:52:35;8.90;;;7.83;;
6023;SDS011;3040;42.654;23.296;2023-06-24T14:55:02;11.47;;;7.97;;